createdAt,value
2023-03-28T00:01:12.417Z,1.23
2023-03-28T00:03:42.252Z,1.37
2023-03-28T00:06:11.831Z,1.53
2023-03-28T00:08:40.178Z,1.37
2023-03-28T00:11:29.633Z,1.60
2023-03-28T00:14:00.813Z,1.40
2023-03-28T00:16:34.329Z,1.57
2023-03-28T00:19:11.658Z,1.40
2023-03-28T00:21:41.420Z,1.50
2023-03-28T00:24:13.972Z,1.57
2023-03-28T00:26:42.388Z,1.50
2023-03-28T00:29:12.068Z,1.83
2023-03-28T00:31:39.213Z,1.50
2023-03-28T00:34:07.046Z,1.80
2023-03-28T00:36:34.620Z,1.57
2023-03-28T00:39:06.790Z,1.70
2023-03-28T00:41:39.761Z,1.60
2023-03-28T00:44:40.360Z,1.60
2023-03-28T00:47:20.641Z,1.40
2023-03-28T00:49:49.781Z,1.20
2023-03-28T00:52:17.913Z,1.50
2023-03-28T00:54:46.192Z,1.27
2023-03-28T00:57:16.443Z,1.27
2023-03-28T00:59:44.028Z,1.23
2023-03-28T01:02:11.860Z,1.50
2023-03-28T01:04:57.705Z,1.70
2023-03-28T01:07:27.224Z,1.50
2023-03-28T01:09:54.692Z,1.70
2023-03-28T01:12:22.820Z,1.80
2023-03-28T01:14:50.357Z,1.50
2023-03-28T01:17:17.386Z,1.47
2023-03-28T01:20:03.957Z,1.40
2023-03-28T01:22:56.971Z,3.70
2023-03-28T01:25:49.921Z,3.90
2023-03-28T01:28:29.065Z,3.27
2023-03-28T01:31:26.454Z,3.43
2023-03-28T01:34:52.006Z,2.80
2023-03-28T01:37:46.939Z,2.63
2023-03-28T01:40:36.220Z,2.27
2023-03-28T01:43:22.795Z,2.90
2023-03-28T01:46:13.984Z,2.13
2023-03-28T01:48:57.976Z,2.73
2023-03-28T01:51:28.725Z,2.50
2023-03-28T01:54:19.546Z,2.50
2023-03-28T01:56:51.453Z,2.30
2023-03-28T01:59:42.955Z,2.63
2023-03-28T02:02:39.158Z,2.20
2023-03-28T02:05:32.916Z,2.70
2023-03-28T02:08:02.789Z,2.93
2023-03-28T02:10:42.319Z,2.40
2023-03-28T02:13:35.978Z,2.53
2023-03-28T02:16:23.967Z,2.93
2023-03-28T02:19:24.958Z,3.20
2023-03-28T02:22:20.224Z,2.70
2023-03-28T02:25:16.521Z,2.90
2023-03-28T02:28:01.235Z,3.30
2023-03-28T02:30:37.418Z,2.90
2023-03-28T02:33:08.556Z,3.00
2023-03-28T02:35:58.117Z,2.57
2023-03-28T02:38:40.375Z,2.40
2023-03-28T02:41:13.138Z,2.30
2023-03-28T02:43:41.320Z,2.70
2023-03-28T02:46:29.159Z,2.40
2023-03-28T02:48:55.652Z,2.60
2023-03-28T02:51:30.088Z,2.10
2023-03-28T02:54:08.638Z,2.43
2023-03-28T02:56:46.038Z,3.07
2023-03-28T02:59:40.823Z,2.83
2023-03-28T03:02:08.314Z,3.20
2023-03-28T03:04:34.814Z,3.13
2023-03-28T03:07:02.500Z,3.03
2023-03-28T03:09:31.123Z,2.87
2023-03-28T03:11:57.554Z,2.80
2023-03-28T03:14:24.169Z,2.50
2023-03-28T03:16:52.819Z,2.80
2023-03-28T03:19:19.408Z,2.40
2023-03-28T03:21:46.537Z,2.10
2023-03-28T03:24:14.273Z,2.70
2023-03-28T03:26:42.912Z,2.67
2023-03-28T03:29:15.202Z,2.50
2023-03-28T03:31:41.714Z,2.63
2023-03-28T03:34:24.231Z,2.57
2023-03-28T03:36:54.917Z,2.53
2023-03-28T03:39:22.281Z,2.70
2023-03-28T03:41:48.855Z,2.63
2023-03-28T03:44:15.307Z,3.10
2023-03-28T03:46:41.927Z,2.90
2023-03-28T03:49:09.734Z,2.60
2023-03-28T03:51:36.781Z,2.90
2023-03-28T03:54:03.288Z,3.20
2023-03-28T03:56:34.627Z,3.10
2023-03-28T03:59:01.131Z,3.20
2023-03-28T04:01:32.421Z,3.13
2023-03-28T04:04:16.584Z,4.00
2023-03-28T04:07:02.346Z,4.50
2023-03-28T04:09:28.916Z,3.53
2023-03-28T04:11:59.534Z,3.53
2023-03-28T04:14:27.998Z,3.73
2023-03-28T04:17:16.084Z,3.57
2023-03-28T04:19:43.720Z,3.57
2023-03-28T04:22:12.709Z,3.30
2023-03-28T04:24:45.774Z,3.77
2023-03-28T04:27:18.187Z,3.70
2023-03-28T04:29:46.904Z,4.00
2023-03-28T04:32:35.840Z,3.27
2023-03-28T04:35:08.108Z,3.87
2023-03-28T04:37:37.692Z,3.73
2023-03-28T04:40:11.955Z,3.30
2023-03-28T04:42:47.055Z,4.20
2023-03-28T04:45:36.589Z,3.73
2023-03-28T04:48:12.735Z,3.77
2023-03-28T04:50:39.824Z,4.00
2023-03-28T04:53:06.358Z,3.90
2023-03-28T04:55:33.063Z,4.43
2023-03-28T04:58:06.167Z,3.80
2023-03-28T05:00:33.027Z,4.50
2023-03-28T05:03:05.034Z,5.33
2023-03-28T05:05:41.606Z,6.43
2023-03-28T05:08:12.999Z,7.17
2023-03-28T05:10:40.074Z,7.50
2023-03-28T05:13:08.401Z,6.93
2023-03-28T05:15:43.701Z,5.97
2023-03-28T05:18:26.564Z,6.30
2023-03-28T05:20:53.024Z,5.80
2023-03-28T05:23:19.555Z,5.67
2023-03-28T05:25:51.792Z,5.37
2023-03-28T05:28:18.983Z,5.60
2023-03-28T05:30:49.748Z,5.27
2023-03-28T05:33:16.546Z,4.90
2023-03-28T05:35:44.260Z,5.23
2023-03-28T05:38:10.775Z,4.83
2023-03-28T05:40:37.654Z,5.13
2023-03-28T05:43:04.628Z,4.60
2023-03-28T05:45:32.542Z,5.07
2023-03-28T05:48:19.827Z,4.70
2023-03-28T05:50:51.016Z,5.03
2023-03-28T05:53:17.736Z,5.77
2023-03-28T05:55:44.426Z,5.60
2023-03-28T05:58:11.047Z,5.50
2023-03-28T06:00:39.935Z,5.27
2023-03-28T06:03:07.791Z,5.27
2023-03-28T06:05:37.521Z,5.50
2023-03-28T06:08:13.158Z,5.17
2023-03-28T06:10:39.679Z,5.07
2023-03-28T06:13:16.327Z,4.70
2023-03-28T06:15:45.542Z,4.50
2023-03-28T06:18:12.115Z,4.20
2023-03-28T06:20:44.176Z,4.20
2023-03-28T06:23:11.016Z,4.00
2023-03-28T06:25:37.719Z,4.07
2023-03-28T06:28:04.471Z,4.10
2023-03-28T06:30:32.928Z,4.33
2023-03-28T06:33:00.275Z,4.50
2023-03-28T06:35:29.558Z,4.20
2023-03-28T06:37:56.335Z,4.13
2023-03-28T06:40:26.497Z,4.20
2023-03-28T06:42:53.437Z,4.90
2023-03-28T06:45:36.732Z,5.23
2023-03-28T06:48:07.574Z,6.00
2023-03-28T06:50:54.308Z,7.13
2023-03-28T06:53:22.927Z,5.70
2023-03-28T06:55:51.240Z,5.40
2023-03-28T06:58:18.464Z,5.13
2023-03-28T07:00:52.776Z,4.93
2023-03-28T07:03:36.867Z,3.90
2023-03-28T07:06:06.672Z,4.70
2023-03-28T07:08:34.056Z,4.83
2023-03-28T07:11:00.947Z,4.67
2023-03-28T07:13:28.470Z,4.33
2023-03-28T07:16:05.186Z,4.30
2023-03-28T07:18:32.409Z,4.57
2023-03-28T07:21:03.906Z,4.90
2023-03-28T07:23:31.776Z,4.57
2023-03-28T07:25:58.500Z,4.40
2023-03-28T07:28:25.087Z,4.40
2023-03-28T07:30:54.223Z,5.10
2023-03-28T07:33:27.127Z,3.80
2023-03-28T07:36:11.985Z,4.83
2023-03-28T07:38:39.058Z,6.40
2023-03-28T07:41:06.176Z,5.70
2023-03-28T07:43:32.716Z,5.20
2023-03-28T07:46:03.214Z,5.90
2023-03-28T07:48:30.576Z,6.40
2023-03-28T07:50:57.277Z,6.50
2023-03-28T07:53:23.847Z,6.03
2023-03-28T07:55:54.837Z,5.63
2023-03-28T07:58:25.295Z,5.23
2023-03-28T08:00:54.680Z,4.40
2023-03-28T08:03:30.554Z,4.60
2023-03-28T08:06:02.762Z,3.93
2023-03-28T08:08:30.893Z,4.10
2023-03-28T08:11:13.379Z,3.77
2023-03-28T08:13:40.243Z,3.20
2023-03-28T08:16:16.235Z,2.97
2023-03-28T08:18:42.790Z,2.47
2023-03-28T08:21:09.962Z,1.90
2023-03-28T08:23:36.785Z,2.00
2023-03-28T08:26:22.594Z,1.10
2023-03-28T08:28:54.784Z,1.30
2023-03-28T08:31:26.641Z,0.90
2023-03-28T08:33:56.832Z,1.10
2023-03-28T08:36:28.608Z,1.90
2023-03-28T08:39:00.463Z,1.40
2023-03-28T08:42:06.625Z,1.23
2023-03-28T08:44:48.459Z,1.63
2023-03-28T08:47:28.818Z,1.30
2023-03-28T08:50:01.989Z,1.40
2023-03-28T08:52:30.444Z,1.70
2023-03-28T08:55:18.247Z,1.20
2023-03-28T08:57:45.619Z,1.70
2023-03-28T09:00:48.544Z,1.50
2023-03-28T09:03:18.849Z,2.13
2023-03-28T09:06:11.433Z,1.30
2023-03-28T09:09:01.726Z,1.63
2023-03-28T09:11:54.707Z,1.57
2023-03-28T09:15:00.282Z,1.53
2023-03-28T09:17:47.852Z,1.20
2023-03-28T09:20:33.204Z,1.30
2023-03-28T09:23:48.843Z,1.37
2023-03-28T09:26:57.071Z,1.33
2023-03-28T09:29:26.131Z,1.43
2023-03-28T09:32:00.025Z,1.60
2023-03-28T09:34:33.603Z,1.10
2023-03-28T09:37:13.534Z,1.60
2023-03-28T09:39:49.374Z,1.37
2023-03-28T09:42:22.948Z,1.20
2023-03-28T09:45:18.267Z,1.80
2023-03-28T09:48:19.779Z,1.47
2023-03-28T09:50:47.364Z,1.13
2023-03-28T09:53:21.894Z,1.10
2023-03-28T09:55:57.945Z,1.07
2023-03-28T09:58:57.393Z,1.30
2023-03-28T10:01:43.613Z,1.30
2023-03-28T10:04:15.460Z,1.13
2023-03-28T10:07:09.699Z,1.33
2023-03-28T10:09:51.461Z,1.10
2023-03-28T10:12:23.037Z,1.03
2023-03-28T10:14:50.784Z,1.20
2023-03-28T10:17:37.264Z,1.20
2023-03-28T10:20:21.718Z,1.10
2023-03-28T10:22:54.773Z,1.10
2023-03-28T10:25:29.550Z,1.10
2023-03-28T10:27:56.446Z,1.10
2023-03-28T10:30:26.175Z,1.10
2023-03-28T10:33:17.518Z,0.90
2023-03-28T10:36:07.674Z,1.00
2023-03-28T10:38:45.835Z,1.03
2023-03-28T10:41:33.036Z,1.20
2023-03-28T10:44:19.285Z,1.13
2023-03-28T10:47:16.156Z,0.93
2023-03-28T10:49:51.597Z,1.00
2023-03-28T10:52:48.577Z,1.10
2023-03-28T10:55:31.614Z,1.00
2023-03-28T10:58:32.989Z,1.00
2023-03-28T11:01:24.840Z,0.90
2023-03-28T11:04:26.365Z,1.03
2023-03-28T11:07:04.308Z,1.10
2023-03-28T11:10:24.143Z,1.20
2023-03-28T11:13:23.827Z,1.10
2023-03-28T11:16:06.852Z,0.90
2023-03-28T11:18:57.881Z,0.90
2023-03-28T11:21:52.176Z,1.10
2023-03-28T11:24:28.413Z,1.00
2023-03-28T11:27:40.696Z,1.10
2023-03-28T11:30:20.903Z,1.10
2023-03-28T11:33:24.664Z,1.20
2023-03-28T11:36:07.274Z,1.10
2023-03-28T11:38:39.050Z,1.20
2023-03-28T11:41:11.523Z,0.97
2023-03-28T11:44:02.346Z,1.00
2023-03-28T11:46:40.737Z,0.90
2023-03-28T11:49:36.466Z,1.10
2023-03-28T11:52:23.895Z,1.23
2023-03-28T11:55:04.532Z,1.03
2023-03-28T11:57:54.485Z,1.03
2023-03-28T12:00:33.736Z,1.00
2023-03-28T12:03:13.714Z,0.90
2023-03-28T12:06:17.313Z,1.20
2023-03-28T12:08:50.963Z,0.93
2023-03-28T12:11:24.207Z,1.00
2023-03-28T12:14:12.637Z,1.00
2023-03-28T12:16:49.634Z,1.20
2023-03-28T12:19:33.790Z,1.10
2023-03-28T12:22:18.914Z,0.97
2023-03-28T12:24:57.226Z,1.00
2023-03-28T12:28:00.136Z,0.80
2023-03-28T12:30:45.564Z,0.90
2023-03-28T12:33:37.343Z,0.90
2023-03-28T12:36:35.849Z,0.90
2023-03-28T12:39:42.232Z,1.00
2023-03-28T12:42:21.320Z,0.70
2023-03-28T12:44:58.244Z,0.90
2023-03-28T12:47:32.458Z,0.90
2023-03-28T12:50:04.928Z,1.00
2023-03-28T12:52:34.644Z,1.30
2023-03-28T12:55:27.542Z,1.20
2023-03-28T12:58:22.074Z,1.20
2023-03-28T13:01:09.453Z,0.97
2023-03-28T13:03:48.228Z,1.17
2023-03-28T13:06:40.836Z,1.10
2023-03-28T13:09:41.718Z,1.30
2023-03-28T13:12:29.869Z,1.07
2023-03-28T13:15:22.285Z,1.10
2023-03-28T13:18:17.863Z,1.03
2023-03-28T13:20:46.975Z,0.80
2023-03-28T13:23:15.520Z,0.90
2023-03-28T13:25:44.574Z,1.10
2023-03-28T13:28:11.162Z,1.10
2023-03-28T13:30:43.160Z,1.30
2023-03-28T13:33:24.751Z,1.00
2023-03-28T13:36:00.333Z,1.00
2023-03-28T13:38:26.979Z,1.07
2023-03-28T13:40:56.307Z,0.87
2023-03-28T13:43:35.950Z,0.93
2023-03-28T13:46:12.526Z,1.30
2023-03-28T13:49:00.127Z,1.10
2023-03-28T13:51:31.267Z,0.90
2023-03-28T13:53:57.783Z,1.00
2023-03-28T13:56:27.599Z,0.83
2023-03-28T13:58:56.045Z,1.20
2023-03-28T14:01:34.723Z,1.00
2023-03-28T14:04:01.210Z,1.10
2023-03-28T14:06:29.916Z,0.90
2023-03-28T14:09:01.130Z,1.10
2023-03-28T14:11:37.569Z,0.80
2023-03-28T14:14:33.336Z,0.90
2023-03-28T14:17:06.290Z,0.80
2023-03-28T14:19:43.146Z,0.80
2023-03-28T14:22:23.217Z,0.90
2023-03-28T14:24:52.347Z,0.90
2023-03-28T14:27:41.114Z,0.80
2023-03-28T14:30:37.128Z,0.97
2023-03-28T14:33:13.483Z,0.80
2023-03-28T14:35:46.439Z,0.90
2023-03-28T14:38:14.808Z,0.80
2023-03-28T14:40:45.682Z,0.90
2023-03-28T14:43:13.581Z,1.00
2023-03-28T14:45:47.725Z,0.97
2023-03-28T14:48:19.090Z,1.00
2023-03-28T14:50:47.841Z,0.83
2023-03-28T14:53:21.933Z,0.90
2023-03-28T14:55:50.995Z,0.80
2023-03-28T14:58:19.078Z,1.10
2023-03-28T15:00:48.241Z,1.00
2023-03-28T15:03:18.323Z,1.00
2023-03-28T15:05:48.613Z,0.80
2023-03-28T15:08:30.831Z,0.80
2023-03-28T15:11:03.258Z,0.90
2023-03-28T15:13:38.816Z,1.07
2023-03-28T15:16:08.041Z,0.90
2023-03-28T15:18:44.345Z,0.70
2023-03-28T15:21:11.673Z,0.90
2023-03-28T15:23:49.129Z,0.87
2023-03-28T15:26:25.468Z,0.80
2023-03-28T15:28:54.828Z,1.00
2023-03-28T15:31:22.229Z,0.90
2023-03-28T15:33:50.576Z,0.90
2023-03-28T15:36:20.100Z,0.97
2023-03-28T15:38:51.231Z,0.90
2023-03-28T15:41:39.645Z,0.80
2023-03-28T15:44:30.314Z,0.87
2023-03-28T15:47:23.721Z,0.87
2023-03-28T15:49:50.971Z,1.60
2023-03-28T15:52:20.208Z,1.00
2023-03-28T15:54:52.064Z,0.90
2023-03-28T15:57:23.158Z,1.30
2023-03-28T15:59:54.916Z,1.20
2023-03-28T16:02:24.099Z,0.87
2023-03-28T16:05:09.991Z,1.00
2023-03-28T16:07:46.371Z,0.90
2023-03-28T16:10:16.622Z,0.90
2023-03-28T16:13:03.152Z,1.00
2023-03-28T16:15:51.140Z,0.83
2023-03-28T16:18:33.357Z,0.93
2023-03-28T16:21:02.910Z,0.90
2023-03-28T16:23:29.347Z,1.20
2023-03-28T16:25:55.853Z,1.60
2023-03-28T16:28:22.332Z,1.53
2023-03-28T16:30:49.051Z,9.00
2023-03-28T16:33:16.855Z,4.53
2023-03-28T16:35:43.417Z,10.80
2023-03-28T16:38:11.534Z,1.53
2023-03-28T16:40:38.583Z,1.70
2023-03-28T16:43:05.407Z,1.23
2023-03-28T16:45:31.916Z,2.13
2023-03-28T16:47:58.560Z,2.40
2023-03-28T16:50:25.086Z,1.50
2023-03-28T16:52:51.516Z,1.00
2023-03-28T16:55:18.837Z,1.40
2023-03-28T16:57:46.295Z,1.10
2023-03-28T17:00:17.742Z,1.10
2023-03-28T17:02:48.124Z,1.10
2023-03-28T17:05:16.233Z,1.50
2023-03-28T17:07:42.664Z,1.40
2023-03-28T17:10:10.140Z,1.30
2023-03-28T17:12:36.899Z,1.53
2023-03-28T17:15:03.833Z,1.47
2023-03-28T17:17:30.688Z,1.90
2023-03-28T17:19:57.138Z,1.77
2023-03-28T17:22:23.617Z,1.60
2023-03-28T17:24:50.823Z,1.33
2023-03-28T17:27:17.529Z,1.60
2023-03-28T17:29:44.003Z,1.70
2023-03-28T17:32:11.387Z,1.47
2023-03-28T17:34:38.007Z,1.40
2023-03-28T17:37:04.560Z,1.20
2023-03-28T17:39:31.746Z,1.70
2023-03-28T17:41:58.326Z,1.03
2023-03-28T17:44:24.871Z,1.53
2023-03-28T17:46:51.909Z,1.63
2023-03-28T17:49:18.689Z,1.37
2023-03-28T17:51:45.480Z,1.40
2023-03-28T17:54:12.103Z,1.33
2023-03-28T17:56:39.678Z,2.10
2023-03-28T17:59:06.764Z,1.70
2023-03-28T18:01:33.713Z,1.53
2023-03-28T18:04:00.498Z,1.60
2023-03-28T18:06:45.705Z,1.40
2023-03-28T18:09:12.243Z,2.27
2023-03-28T18:11:39.226Z,2.07
2023-03-28T18:14:08.343Z,1.57
2023-03-28T18:16:35.680Z,1.63
2023-03-28T18:19:02.237Z,1.53
2023-03-28T18:21:28.860Z,1.40
2023-03-28T18:23:55.394Z,1.50
2023-03-28T18:26:25.500Z,1.30
2023-03-28T18:28:52.091Z,1.70
2023-03-28T18:31:20.156Z,1.70
2023-03-28T18:33:46.860Z,1.67
2023-03-28T18:36:14.126Z,1.83
2023-03-28T18:38:43.013Z,2.40
2023-03-28T18:41:12.292Z,2.37
2023-03-28T18:43:41.336Z,1.50
2023-03-28T18:46:08.654Z,1.50
2023-03-28T18:48:36.035Z,2.37
2023-03-28T18:51:11.643Z,3.07
2023-03-28T18:53:38.267Z,2.67
2023-03-28T18:56:05.996Z,3.47
2023-03-28T18:58:34.016Z,3.13
2023-03-28T19:01:03.438Z,2.03
2023-03-28T19:03:34.492Z,3.27
2023-03-28T19:06:02.814Z,3.13
2023-03-28T19:08:30.657Z,2.80
2023-03-28T19:11:00.063Z,3.00
2023-03-28T19:13:28.630Z,2.50
2023-03-28T19:16:00.380Z,2.67
2023-03-28T19:18:27.368Z,2.70
2023-03-28T19:20:55.533Z,2.20
2023-03-28T19:23:23.133Z,2.07
2023-03-28T19:25:49.727Z,2.70
2023-03-28T19:28:17.546Z,1.30
2023-03-28T19:30:44.450Z,1.90
2023-03-28T19:33:11.332Z,1.90
2023-03-28T19:35:39.372Z,1.80
2023-03-28T19:38:05.983Z,1.90
2023-03-28T19:40:32.567Z,2.80
2023-03-28T19:42:59.076Z,1.90
2023-03-28T19:45:26.097Z,1.53
2023-03-28T19:47:52.599Z,2.30
2023-03-28T19:50:19.232Z,1.90
2023-03-28T19:52:45.726Z,3.47
2023-03-28T19:55:12.191Z,2.00
2023-03-28T19:57:38.801Z,1.63
2023-03-28T20:00:06.964Z,1.40
2023-03-28T20:02:39.064Z,1.30
2023-03-28T20:05:06.113Z,1.20
2023-03-28T20:07:32.531Z,1.67
2023-03-28T20:09:59.701Z,1.23
2023-03-28T20:12:26.170Z,1.70
2023-03-28T20:14:54.412Z,1.30
2023-03-28T20:17:22.091Z,1.20
2023-03-28T20:19:51.466Z,1.10
2023-03-28T20:22:19.781Z,1.30
2023-03-28T20:24:48.640Z,1.87
2023-03-28T20:27:16.354Z,1.80
2023-03-28T20:29:42.833Z,2.00
2023-03-28T20:32:10.407Z,2.10
2023-03-28T20:34:37.110Z,2.20
2023-03-28T20:37:03.552Z,2.10
2023-03-28T20:39:34.114Z,3.43
2023-03-28T20:42:05.454Z,3.07
2023-03-28T20:44:37.887Z,1.40
2023-03-28T20:47:09.009Z,1.60
2023-03-28T20:49:38.115Z,1.00
2023-03-28T20:52:06.507Z,1.30
2023-03-28T20:54:33.163Z,1.20
2023-03-28T20:56:59.641Z,1.47
2023-03-28T20:59:27.267Z,1.20
2023-03-28T21:01:54.584Z,1.47
2023-03-28T21:04:22.117Z,2.70
2023-03-28T21:06:49.944Z,4.90
2023-03-28T21:09:17.761Z,24.67
2023-03-28T21:11:44.663Z,11.93
2023-03-28T21:14:13.480Z,7.93
2023-03-28T21:16:40.420Z,2.70
2023-03-28T21:19:06.899Z,2.30
2023-03-28T21:21:34.014Z,14.77
2023-03-28T21:24:01.736Z,8.97
2023-03-28T21:26:29.041Z,3.70
2023-03-28T21:28:55.862Z,2.10
2023-03-28T21:31:25.754Z,2.17
2023-03-28T21:33:57.114Z,1.57
2023-03-28T21:36:24.593Z,1.90
2023-03-28T21:38:51.444Z,1.93
2023-03-28T21:41:17.918Z,1.80
2023-03-28T21:43:44.612Z,2.20
2023-03-28T21:46:11.515Z,2.13
2023-03-28T21:48:38.585Z,1.80
2023-03-28T21:51:05.800Z,2.00
2023-03-28T21:53:35.133Z,2.23
2023-03-28T21:56:01.840Z,1.90
2023-03-28T21:58:31.854Z,1.93
2023-03-28T22:00:59.483Z,2.30
2023-03-28T22:03:27.145Z,2.20
2023-03-28T22:05:54.575Z,2.07
2023-03-28T22:08:22.475Z,2.17
2023-03-28T22:10:52.629Z,1.97
2023-03-28T22:13:19.949Z,1.87
2023-03-28T22:15:46.434Z,2.23
2023-03-28T22:18:13.237Z,2.07
2023-03-28T22:20:43.436Z,1.87
2023-03-28T22:23:10.735Z,1.80
2023-03-28T22:25:38.821Z,1.90
2023-03-28T22:28:08.277Z,2.13
2023-03-28T22:30:36.816Z,2.00
2023-03-28T22:33:04.256Z,2.20
2023-03-28T22:35:32.198Z,2.10
2023-03-28T22:37:59.632Z,2.00
2023-03-28T22:40:26.311Z,3.17
2023-03-28T22:42:54.093Z,3.50
2023-03-28T22:45:25.009Z,3.40
2023-03-28T22:47:51.531Z,3.50
2023-03-28T22:50:19.349Z,3.47
2023-03-28T22:52:50.269Z,2.93
2023-03-28T22:55:17.271Z,2.83
2023-03-28T22:57:44.774Z,2.97
2023-03-28T23:00:13.512Z,2.60
2023-03-28T23:02:40.464Z,2.03
2023-03-28T23:05:08.132Z,2.17
2023-03-28T23:07:35.882Z,2.30
2023-03-28T23:10:08.436Z,2.30
2023-03-28T23:12:35.336Z,2.20
2023-03-28T23:15:01.772Z,2.23
2023-03-28T23:17:28.450Z,1.90
2023-03-28T23:19:55.023Z,2.30
2023-03-28T23:22:22.385Z,2.27
2023-03-28T23:24:51.934Z,1.83
2023-03-28T23:27:19.650Z,2.20
2023-03-28T23:29:46.613Z,2.00
2023-03-28T23:32:13.124Z,1.80
2023-03-28T23:34:40.209Z,2.00
2023-03-28T23:37:07.091Z,2.20
2023-03-28T23:39:33.614Z,2.00
2023-03-28T23:42:00.124Z,1.90
2023-03-28T23:44:27.755Z,1.90
2023-03-28T23:46:56.171Z,1.80
2023-03-28T23:49:22.642Z,2.00
2023-03-28T23:51:49.240Z,2.07
2023-03-28T23:54:18.525Z,2.10
2023-03-28T23:56:45.711Z,2.43
2023-03-28T23:59:12.315Z,1.80
